createdAt,value
2023-05-14T00:02:58.268Z,82.11
2023-05-14T00:08:00.652Z,82.16
2023-05-14T00:13:02.788Z,82.36
2023-05-14T00:18:05.045Z,82.30
2023-05-14T00:23:07.253Z,81.69
2023-05-14T00:28:09.410Z,81.81
2023-05-14T00:33:11.597Z,81.93
2023-05-14T00:38:17.201Z,81.45
2023-05-14T00:43:20.756Z,80.91
2023-05-14T00:48:23.749Z,80.36
2023-05-14T00:53:26.654Z,79.36
2023-05-14T00:58:29.416Z,78.88
2023-05-14T01:03:32.360Z,78.58
2023-05-14T01:08:53.552Z,78.39
2023-05-14T01:14:23.207Z,78.17
2023-05-14T01:19:43.045Z,78.23
2023-05-14T01:24:45.181Z,77.77
2023-05-14T01:29:59.157Z,78.15
2023-05-14T01:35:01.815Z,79.94
2023-05-14T01:40:05.185Z,80.21
2023-05-14T01:45:08.269Z,80.78
2023-05-14T01:50:10.855Z,81.64
2023-05-14T01:55:13.013Z,82.53
2023-05-14T02:00:15.377Z,83.31
2023-05-14T02:05:17.721Z,83.68
2023-05-14T02:10:20.021Z,83.36
2023-05-14T02:15:22.239Z,82.56
2023-05-14T02:20:24.661Z,82.49
2023-05-14T02:25:27.015Z,82.57
2023-05-14T02:30:30.127Z,82.77
2023-05-14T02:35:32.281Z,82.89
2023-05-14T02:40:34.413Z,81.70
2023-05-14T02:45:36.597Z,82.10
2023-05-14T02:50:38.818Z,82.37
2023-05-14T02:55:41.396Z,82.49
2023-05-14T03:00:43.535Z,82.53
2023-05-14T03:05:46.254Z,82.71
2023-05-14T03:10:48.449Z,82.36
2023-05-14T03:15:54.909Z,82.24
2023-05-14T03:20:57.279Z,80.83
2023-05-14T03:25:59.501Z,79.68
2023-05-14T03:31:01.886Z,79.14
2023-05-14T03:36:05.518Z,78.71
2023-05-14T03:41:07.652Z,78.89
2023-05-14T03:46:09.760Z,77.93
2023-05-14T03:51:12.226Z,78.74
2023-05-14T03:56:14.347Z,78.57
2023-05-14T04:01:16.692Z,78.81
2023-05-14T04:06:19.278Z,78.32
2023-05-14T04:11:21.675Z,77.67
2023-05-14T04:16:23.916Z,76.96
2023-05-14T04:21:26.066Z,76.37
2023-05-14T04:26:28.258Z,75.90
2023-05-14T04:31:30.551Z,74.60
2023-05-14T04:36:32.922Z,73.90
2023-05-14T04:41:35.155Z,73.93
2023-05-14T04:46:37.536Z,73.88
2023-05-14T04:51:39.942Z,73.88
2023-05-14T04:56:42.104Z,73.45
2023-05-14T05:01:45.422Z,73.88
2023-05-14T05:06:47.808Z,72.39
2023-05-14T05:11:49.921Z,72.22
2023-05-14T05:16:52.052Z,72.74
2023-05-14T05:21:54.179Z,73.28
2023-05-14T05:26:56.684Z,73.48
2023-05-14T05:31:59.228Z,72.64
2023-05-14T05:37:01.420Z,72.24
2023-05-14T05:42:04.194Z,72.24
2023-05-14T05:47:06.448Z,72.70
2023-05-14T05:52:08.776Z,71.49
2023-05-14T05:57:10.961Z,71.44
2023-05-14T06:02:13.253Z,70.39
2023-05-14T06:07:15.435Z,71.24
2023-05-14T06:12:17.556Z,72.42
2023-05-14T06:17:19.773Z,71.34
2023-05-14T06:22:21.981Z,70.97
2023-05-14T06:27:24.109Z,71.14
2023-05-14T06:32:26.294Z,72.35
2023-05-14T06:37:28.573Z,73.72
2023-05-14T06:42:30.855Z,75.31
2023-05-14T06:47:33.684Z,74.59
2023-05-14T06:52:37.537Z,74.42
2023-05-14T06:57:40.810Z,75.08
2023-05-14T07:02:43.251Z,75.19
2023-05-14T07:07:45.569Z,74.39
2023-05-14T07:12:47.930Z,73.05
2023-05-14T07:17:50.231Z,70.89
2023-05-14T07:22:53.152Z,69.74
2023-05-14T07:27:55.820Z,68.57
2023-05-14T07:32:57.995Z,67.84
2023-05-14T07:38:00.379Z,66.39
2023-05-14T07:43:02.561Z,66.33
2023-05-14T07:48:05.145Z,64.86
2023-05-14T07:53:08.570Z,64.74
2023-05-14T07:58:11.009Z,64.71
2023-05-14T08:03:13.521Z,64.27
2023-05-14T08:08:16.359Z,64.08
2023-05-14T08:13:18.555Z,64.27
2023-05-14T08:18:20.835Z,65.07
2023-05-14T08:23:23.005Z,65.33
2023-05-14T08:28:25.343Z,67.20
2023-05-14T08:33:27.474Z,67.49
2023-05-14T08:38:29.673Z,68.30
2023-05-14T08:43:47.553Z,69.65
2023-05-14T08:48:58.534Z,71.27
2023-05-14T08:54:03.547Z,71.26
2023-05-14T08:59:05.686Z,70.44
2023-05-14T09:04:08.650Z,71.51
2023-05-14T09:09:11.468Z,72.87
2023-05-14T09:14:13.681Z,72.22
2023-05-14T09:19:19.027Z,71.31
2023-05-14T09:24:22.535Z,71.70
2023-05-14T09:29:29.690Z,72.39
2023-05-14T09:34:34.853Z,73.06
2023-05-14T09:39:38.370Z,73.25
2023-05-14T09:44:40.585Z,73.23
2023-05-14T09:49:42.764Z,73.00
2023-05-14T09:54:47.388Z,74.18
2023-05-14T09:59:49.560Z,74.78
2023-05-14T10:04:54.672Z,74.69
2023-05-14T10:10:03.018Z,74.46
2023-05-14T10:15:17.930Z,74.23
2023-05-14T10:20:20.867Z,73.73
2023-05-14T10:25:23.981Z,78.17
2023-05-14T10:30:27.301Z,75.23
2023-05-14T10:35:29.584Z,73.95
2023-05-14T10:40:32.192Z,73.07
2023-05-14T10:45:34.676Z,73.46
2023-05-14T10:50:36.937Z,73.82
2023-05-14T10:55:39.461Z,74.52
2023-05-14T11:00:41.642Z,74.92
2023-05-14T11:05:44.998Z,74.54
2023-05-14T11:10:47.574Z,74.43
2023-05-14T11:15:49.907Z,74.99
2023-05-14T11:20:52.706Z,75.43
2023-05-14T11:25:56.645Z,76.71
2023-05-14T11:30:59.200Z,77.68
2023-05-14T11:36:01.364Z,79.09
2023-05-14T11:41:05.726Z,79.45
2023-05-14T11:46:07.881Z,79.77
2023-05-14T11:51:10.333Z,80.32
2023-05-14T11:56:12.617Z,80.31
2023-05-14T12:01:15.820Z,83.80
2023-05-14T12:06:19.126Z,82.60
2023-05-14T12:11:22.101Z,82.66
2023-05-14T12:16:24.258Z,86.03
2023-05-14T12:21:27.584Z,84.24
2023-05-14T12:26:33.031Z,85.12
2023-05-14T12:31:36.572Z,85.40
2023-05-14T12:36:38.965Z,85.62
2023-05-14T12:41:41.354Z,86.66
2023-05-14T12:46:43.582Z,87.63
2023-05-14T12:51:46.989Z,88.85
2023-05-14T12:56:50.232Z,92.75
2023-05-14T13:01:52.563Z,92.55
2023-05-14T13:06:54.770Z,91.96
2023-05-14T13:11:56.983Z,92.01
2023-05-14T13:16:59.341Z,92.12
2023-05-14T13:22:01.507Z,94.38
2023-05-14T13:27:03.933Z,94.37
2023-05-14T13:32:06.375Z,94.24
2023-05-14T13:37:08.589Z,94.06
2023-05-14T13:42:10.826Z,93.78
2023-05-14T13:47:13.065Z,95.25
2023-05-14T13:52:15.367Z,95.69
2023-05-14T13:57:17.687Z,96.13
2023-05-14T14:02:19.863Z,96.05
2023-05-14T14:07:22.056Z,95.81
2023-05-14T14:12:24.287Z,95.54
2023-05-14T14:17:26.657Z,95.70
2023-05-14T14:22:29.263Z,95.97
2023-05-14T14:27:36.094Z,97.62
2023-05-14T14:32:38.217Z,97.05
2023-05-14T14:37:41.905Z,96.84
2023-05-14T14:42:44.272Z,96.96
2023-05-14T14:47:46.753Z,97.18
2023-05-14T14:52:48.959Z,97.30
2023-05-14T14:57:51.121Z,97.17
2023-05-14T15:02:53.380Z,97.41
2023-05-14T15:07:55.706Z,97.66
2023-05-14T15:12:59.197Z,97.18
2023-05-14T15:18:02.167Z,96.87
2023-05-14T15:23:04.506Z,97.10
2023-05-14T15:28:07.672Z,97.14
2023-05-14T15:33:10.901Z,96.99
2023-05-14T15:38:13.311Z,97.30
2023-05-14T15:43:15.478Z,97.57
2023-05-14T15:48:17.766Z,98.50
2023-05-14T15:53:20.159Z,100.00
2023-05-14T15:58:22.705Z,100.00
2023-05-14T16:03:24.964Z,100.00
2023-05-14T16:08:27.179Z,100.00
2023-05-14T16:13:29.362Z,100.00
2023-05-14T16:18:31.633Z,100.00
2023-05-14T16:23:33.870Z,100.00
2023-05-14T16:28:36.108Z,100.00
2023-05-14T16:33:38.244Z,99.93
2023-05-14T16:38:52.365Z,99.47
2023-05-14T16:44:02.690Z,99.40
2023-05-14T16:49:04.875Z,99.35
2023-05-14T16:54:07.055Z,99.27
2023-05-14T16:59:09.224Z,98.97
2023-05-14T17:04:11.954Z,98.75
2023-05-14T17:09:14.150Z,99.22
2023-05-14T17:14:16.253Z,99.13
2023-05-14T17:19:18.330Z,98.92
2023-05-14T17:24:20.468Z,98.93
2023-05-14T17:29:23.258Z,98.68
2023-05-14T17:34:25.443Z,98.93
2023-05-14T17:39:28.259Z,99.21
2023-05-14T17:44:30.481Z,99.83
2023-05-14T17:49:32.741Z,100.00
2023-05-14T17:54:35.022Z,100.00
2023-05-14T17:59:37.657Z,100.00
2023-05-14T18:04:39.910Z,100.00
2023-05-14T18:09:42.045Z,100.00
2023-05-14T18:14:45.736Z,100.00
2023-05-14T18:19:48.275Z,100.00
2023-05-14T18:24:50.568Z,100.00
2023-05-14T18:29:53.361Z,100.00
2023-05-14T18:34:55.867Z,100.00
2023-05-14T18:39:58.047Z,100.00
2023-05-14T18:45:00.509Z,100.00
2023-05-14T18:50:03.377Z,100.00
2023-05-14T18:55:05.966Z,100.00
2023-05-14T19:00:08.767Z,100.00
2023-05-14T19:05:10.941Z,100.00
2023-05-14T19:10:13.103Z,100.00
2023-05-14T19:15:16.608Z,100.00
2023-05-14T19:20:18.884Z,100.00
2023-05-14T19:25:21.062Z,100.00
2023-05-14T19:30:23.561Z,100.00
2023-05-14T19:35:26.227Z,100.00
2023-05-14T19:40:28.832Z,100.00
2023-05-14T19:45:31.160Z,100.00
2023-05-14T19:50:33.799Z,100.00
2023-05-14T19:55:36.057Z,100.00
2023-05-14T20:00:38.801Z,100.00
2023-05-14T20:05:40.930Z,100.00
2023-05-14T20:10:44.600Z,100.00
2023-05-14T20:15:46.913Z,100.00
2023-05-14T20:20:49.197Z,100.00
2023-05-14T20:25:51.470Z,100.00
2023-05-14T20:30:54.839Z,100.00
2023-05-14T20:35:57.019Z,100.00
2023-05-14T20:40:59.150Z,100.00
2023-05-14T20:46:01.348Z,100.00
2023-05-14T20:51:06.458Z,100.00
2023-05-14T20:56:08.636Z,100.00
2023-05-14T21:01:10.815Z,100.00
2023-05-14T21:06:13.036Z,100.00
2023-05-14T21:11:15.234Z,100.00
2023-05-14T21:16:17.407Z,100.00
2023-05-14T21:21:19.550Z,100.00
2023-05-14T21:26:22.332Z,100.00
2023-05-14T21:31:24.695Z,100.00
2023-05-14T21:36:26.990Z,100.00
2023-05-14T21:41:31.622Z,100.00
2023-05-14T21:46:33.894Z,100.00
2023-05-14T21:51:36.051Z,100.00
2023-05-14T21:56:38.332Z,100.00
2023-05-14T22:02:04.775Z,100.00
2023-05-14T22:07:03.606Z,100.00
2023-05-14T22:12:06.962Z,100.00
2023-05-14T22:17:09.132Z,100.00
2023-05-14T22:22:11.281Z,100.00
2023-05-14T22:27:13.667Z,100.00
2023-05-14T22:32:15.849Z,100.00
2023-05-14T22:37:18.141Z,100.00
2023-05-14T22:42:20.620Z,100.00
2023-05-14T22:47:22.864Z,100.00
2023-05-14T22:52:25.932Z,100.00
2023-05-14T22:57:28.159Z,100.00
2023-05-14T23:02:30.946Z,100.00
2023-05-14T23:07:33.182Z,100.00
2023-05-14T23:12:35.336Z,100.00
2023-05-14T23:17:38.410Z,100.00
2023-05-14T23:22:40.826Z,100.00
2023-05-14T23:27:43.008Z,100.00
2023-05-14T23:32:45.145Z,100.00
2023-05-14T23:37:49.491Z,100.00
2023-05-14T23:42:51.720Z,100.00
2023-05-14T23:47:54.792Z,100.00
2023-05-14T23:52:57.025Z,100.00
2023-05-14T23:57:59.250Z,100.00
